createdAt,value
2019-04-06T00:01:10.860Z,93.96
2019-04-06T00:03:39.370Z,90.13
2019-04-06T00:06:08.061Z,90.48
2019-04-06T00:08:36.759Z,90.25
2019-04-06T00:11:05.456Z,91.31
2019-04-06T00:13:33.960Z,92.62
2019-04-06T00:16:02.871Z,92.76
2019-04-06T00:18:31.419Z,91.05
2019-04-06T00:20:59.997Z,91.56
2019-04-06T00:23:28.508Z,93.06
2019-04-06T00:25:57.078Z,94.69
2019-04-06T00:28:25.743Z,93.43
2019-04-06T00:30:58.701Z,91.86
2019-04-06T00:33:28.921Z,90.76
2019-04-06T00:35:57.430Z,92.07
2019-04-06T00:38:26.087Z,92.62
2019-04-06T00:40:54.665Z,93.51
2019-04-06T00:43:23.391Z,93.68
2019-04-06T00:45:52.195Z,93.45
2019-04-06T00:48:20.786Z,92.86
2019-04-06T00:50:49.406Z,93.93
2019-04-06T00:53:17.937Z,93.82
2019-04-06T00:55:55.120Z,94.83
2019-04-06T00:58:16.780Z,94.76
2019-04-06T01:00:45.439Z,94.24
2019-04-06T01:03:14.364Z,95.02
2019-04-06T01:05:42.973Z,95.05
2019-04-06T01:08:11.517Z,94.00
2019-04-06T01:10:40.118Z,94.38
2019-04-06T01:13:08.716Z,95.08
2019-04-06T01:15:37.450Z,95.17
2019-04-06T01:18:05.974Z,94.08
2019-04-06T01:20:34.852Z,94.29
2019-04-06T01:23:03.402Z,95.61
2019-04-06T01:25:32.000Z,95.67
2019-04-06T01:28:00.540Z,95.61
2019-04-06T01:30:29.189Z,95.92
2019-04-06T01:32:57.975Z,94.06
2019-04-06T01:35:26.504Z,92.36
2019-04-06T01:37:55.230Z,92.62
2019-04-06T01:40:23.760Z,93.44
2019-04-06T01:42:52.449Z,94.74
2019-04-06T01:45:21.007Z,94.82
2019-04-06T01:47:49.706Z,95.81
2019-04-06T01:50:18.400Z,92.96
2019-04-06T01:52:47.490Z,93.07
2019-04-06T01:55:16.328Z,93.04
2019-04-06T01:57:45.051Z,94.49
2019-04-06T02:00:15.312Z,94.02
2019-04-06T02:02:48.362Z,95.99
2019-04-06T02:05:16.975Z,96.35
2019-04-06T02:07:45.579Z,97.20
2019-04-06T02:10:14.421Z,98.38
2019-04-06T02:12:43.275Z,97.02
2019-04-06T02:15:12.001Z,96.37
2019-04-06T02:17:40.660Z,97.48
2019-04-06T02:20:09.719Z,97.59
2019-04-06T02:22:38.454Z,97.64
2019-04-06T02:25:08.039Z,96.50
2019-04-06T02:27:36.845Z,94.94
2019-04-06T02:30:18.055Z,94.49
2019-04-06T02:33:04.250Z,94.18
2019-04-06T02:35:52.785Z,95.67
2019-04-06T02:38:28.949Z,96.78
2019-04-06T02:41:14.388Z,94.47
2019-04-06T02:43:42.881Z,95.97
2019-04-06T02:46:11.709Z,96.83
2019-04-06T02:48:40.478Z,97.18
2019-04-06T02:51:09.090Z,94.87
2019-04-06T02:53:37.792Z,94.41
2019-04-06T02:56:06.341Z,95.00
2019-04-06T02:58:36.482Z,95.12
2019-04-06T03:01:05.269Z,95.82
2019-04-06T03:03:33.931Z,97.06
2019-04-06T03:06:02.770Z,96.31
2019-04-06T03:08:31.559Z,97.81
2019-04-06T03:11:00.169Z,98.13
2019-04-06T03:13:28.851Z,99.52
2019-04-06T03:15:57.508Z,99.82
2019-04-06T03:18:26.119Z,99.63
2019-04-06T03:20:55.194Z,97.52
2019-04-06T03:23:24.981Z,97.74
2019-04-06T03:25:54.387Z,96.21
2019-04-06T03:28:23.052Z,94.72
2019-04-06T03:30:51.765Z,96.61
2019-04-06T03:33:20.421Z,97.52
2019-04-06T03:35:50.461Z,98.22
2019-04-06T03:38:19.517Z,98.71
2019-04-06T03:40:48.087Z,99.16
2019-04-06T03:43:16.657Z,97.52
2019-04-06T03:45:45.279Z,96.63
2019-04-06T03:48:13.858Z,96.51
2019-04-06T03:50:42.735Z,96.57
2019-04-06T03:53:11.434Z,97.00
2019-04-06T03:55:40.139Z,97.67
2019-04-06T03:58:08.660Z,98.18
2019-04-06T04:00:37.200Z,99.29
2019-04-06T04:03:05.921Z,98.89
2019-04-06T04:05:34.557Z,98.31
2019-04-06T04:08:03.114Z,98.90
2019-04-06T04:10:34.005Z,99.39
2019-04-06T04:13:02.754Z,99.28
2019-04-06T04:15:31.327Z,98.18
2019-04-06T04:18:00.698Z,98.40
2019-04-06T04:20:29.546Z,97.79
2019-04-06T04:22:58.679Z,95.97
2019-04-06T04:25:27.467Z,95.94
2019-04-06T04:27:56.270Z,94.14
2019-04-06T04:30:32.603Z,97.68
2019-04-06T04:32:55.355Z,100.00
2019-04-06T04:35:23.971Z,100.00
2019-04-06T04:37:52.863Z,100.00
2019-04-06T04:40:21.466Z,100.00
2019-04-06T04:42:50.092Z,100.00
2019-04-06T04:45:18.741Z,100.00
2019-04-06T04:47:50.036Z,100.00
2019-04-06T04:50:17.983Z,100.00
2019-04-06T04:52:46.722Z,100.00
2019-04-06T04:55:16.217Z,100.00
2019-04-06T04:57:45.609Z,99.41
2019-04-06T05:00:14.611Z,97.91
2019-04-06T05:02:43.174Z,99.11
2019-04-06T05:05:12.099Z,99.37
2019-04-06T05:07:40.623Z,99.15
2019-04-06T05:10:09.494Z,98.86
2019-04-06T05:12:38.169Z,98.37
2019-04-06T05:15:15.950Z,99.10
2019-04-06T05:17:44.489Z,100.00
2019-04-06T05:20:13.592Z,100.00
2019-04-06T05:22:42.107Z,100.00
2019-04-06T05:25:11.476Z,99.77
2019-04-06T05:27:50.778Z,98.77
2019-04-06T05:30:10.865Z,99.35
2019-04-06T05:32:39.740Z,98.80
2019-04-06T05:35:08.473Z,97.94
2019-04-06T05:37:37.059Z,98.87
2019-04-06T05:40:06.459Z,98.84
2019-04-06T05:42:35.121Z,98.15
2019-04-06T05:45:05.243Z,98.42
2019-04-06T05:47:34.215Z,99.24
2019-04-06T05:50:02.911Z,99.35
2019-04-06T05:52:31.577Z,99.28
2019-04-06T05:55:00.214Z,98.64
2019-04-06T05:57:31.813Z,98.39
2019-04-06T05:59:59.100Z,98.72
2019-04-06T06:02:27.643Z,97.92
2019-04-06T06:04:56.327Z,97.27
2019-04-06T06:07:24.861Z,96.59
2019-04-06T06:09:53.382Z,95.59
2019-04-06T06:12:22.229Z,96.04
2019-04-06T06:14:50.819Z,96.67
2019-04-06T06:17:19.464Z,95.72
2019-04-06T06:19:48.069Z,95.95
2019-04-06T06:22:16.596Z,95.42
2019-04-06T06:24:45.175Z,94.76
2019-04-06T06:27:14.181Z,92.01
2019-04-06T06:29:42.880Z,91.69
2019-04-06T06:32:11.486Z,90.42
2019-04-06T06:34:40.109Z,89.98
2019-04-06T06:37:08.912Z,89.62
2019-04-06T06:39:38.160Z,89.64
2019-04-06T06:42:07.919Z,89.00
2019-04-06T06:44:36.738Z,88.30
2019-04-06T06:47:05.390Z,86.73
2019-04-06T06:49:34.160Z,86.73
2019-04-06T06:52:02.844Z,87.33
2019-04-06T06:54:31.700Z,86.69
2019-04-06T06:57:00.731Z,86.04
2019-04-06T06:59:29.313Z,86.08
2019-04-06T07:01:57.946Z,85.72
2019-04-06T07:04:26.570Z,84.53
2019-04-06T07:06:55.019Z,84.21
2019-04-06T07:09:23.536Z,83.54
2019-04-06T07:11:53.681Z,80.78
2019-04-06T07:14:22.339Z,81.14
2019-04-06T07:16:50.851Z,79.62
2019-04-06T07:19:19.585Z,80.13
2019-04-06T07:21:48.059Z,80.62
2019-04-06T07:24:16.580Z,81.05
2019-04-06T07:26:45.161Z,81.85
2019-04-06T07:29:13.870Z,81.43
2019-04-06T07:31:42.443Z,80.31
2019-04-06T07:34:11.120Z,79.04
2019-04-06T07:36:39.610Z,78.65
2019-04-06T07:39:08.292Z,78.26
2019-04-06T07:41:37.011Z,75.83
2019-04-06T07:44:06.172Z,77.07
2019-04-06T07:46:35.174Z,77.74
2019-04-06T07:49:09.317Z,73.22
2019-04-06T07:51:34.312Z,72.25
2019-04-06T07:54:03.151Z,71.75
2019-04-06T07:56:31.657Z,73.33
2019-04-06T07:59:00.940Z,73.31
2019-04-06T08:01:29.613Z,71.87
2019-04-06T08:03:58.346Z,71.57
2019-04-06T08:06:27.214Z,72.21
2019-04-06T08:08:55.884Z,71.80
2019-04-06T08:11:24.646Z,70.91
2019-04-06T08:13:53.894Z,71.69
2019-04-06T08:16:22.615Z,72.77
2019-04-06T08:18:51.285Z,71.00
2019-04-06T08:21:20.356Z,72.38
2019-04-06T08:23:48.945Z,72.17
2019-04-06T08:26:17.809Z,71.04
2019-04-06T08:28:46.637Z,70.76
2019-04-06T08:31:16.186Z,70.63
2019-04-06T08:33:45.046Z,70.52
2019-04-06T08:36:13.629Z,71.16
2019-04-06T08:38:42.454Z,69.96
2019-04-06T08:41:11.177Z,69.37
2019-04-06T08:43:39.849Z,70.59
2019-04-06T08:46:08.516Z,68.94
2019-04-06T08:48:37.288Z,66.01
2019-04-06T08:51:06.039Z,65.23
2019-04-06T08:53:34.757Z,62.84
2019-04-06T08:56:03.347Z,64.09
2019-04-06T08:58:32.077Z,64.24
2019-04-06T09:01:00.956Z,64.22
2019-04-06T09:03:29.627Z,62.28
2019-04-06T09:05:58.371Z,63.90
2019-04-06T09:08:28.458Z,63.98
2019-04-06T09:10:57.173Z,62.86
2019-04-06T09:13:25.891Z,62.31
2019-04-06T09:15:54.549Z,61.33
2019-04-06T09:18:23.101Z,63.36
2019-04-06T09:20:51.617Z,60.35
2019-04-06T09:23:20.283Z,56.50
2019-04-06T09:25:48.859Z,54.17
2019-04-06T09:28:17.562Z,50.62
2019-04-06T09:30:47.786Z,48.55
2019-04-06T09:33:17.449Z,46.54
2019-04-06T09:35:46.470Z,46.02
2019-04-06T09:38:19.744Z,46.36
2019-04-06T09:40:51.983Z,43.47
2019-04-06T09:43:22.205Z,45.75
2019-04-06T09:46:02.347Z,43.10
2019-04-06T09:48:35.954Z,44.03
2019-04-06T09:51:23.997Z,46.37
2019-04-06T09:54:12.193Z,46.35
2019-04-06T09:56:44.131Z,47.56
2019-04-06T09:59:36.385Z,45.46
2019-04-06T10:02:10.425Z,47.88
2019-04-06T10:04:58.551Z,48.08
2019-04-06T10:07:45.423Z,45.91
2019-04-06T10:10:33.250Z,46.09
2019-04-06T10:13:19.636Z,48.53
2019-04-06T10:16:00.174Z,47.59
2019-04-06T10:18:34.905Z,49.37
2019-04-06T10:21:12.478Z,46.12
2019-04-06T10:23:50.100Z,46.40
2019-04-06T10:26:24.739Z,49.03
2019-04-06T10:29:19.851Z,47.39
2019-04-06T10:32:07.379Z,44.73
2019-04-06T10:34:40.628Z,50.59
2019-04-06T10:37:29.909Z,45.31
2019-04-06T10:40:18.220Z,48.41
2019-04-06T10:42:52.812Z,48.82
2019-04-06T10:45:46.505Z,48.32
2019-04-06T10:48:27.263Z,43.82
2019-04-06T10:51:06.552Z,41.86
2019-04-06T10:53:42.078Z,44.83
2019-04-06T10:56:16.323Z,41.03
2019-04-06T10:58:58.092Z,40.73
2019-04-06T11:01:29.811Z,43.17
2019-04-06T11:04:05.041Z,44.36
2019-04-06T11:06:41.297Z,43.32
2019-04-06T11:09:16.965Z,41.61
2019-04-06T11:11:51.215Z,41.05
2019-04-06T11:14:36.875Z,40.70
2019-04-06T11:17:27.390Z,41.74
2019-04-06T11:20:09.487Z,35.84
2019-04-06T11:22:45.056Z,33.60
2019-04-06T11:25:35.781Z,32.91
2019-04-06T11:28:28.636Z,32.94
2019-04-06T11:31:12.044Z,33.20
2019-04-06T11:33:59.004Z,31.79
2019-04-06T11:36:36.336Z,33.15
2019-04-06T11:39:15.153Z,31.81
2019-04-06T11:41:57.156Z,31.96
2019-04-06T11:44:45.400Z,30.66
2019-04-06T11:47:20.800Z,31.54
2019-04-06T11:49:59.661Z,29.78
2019-04-06T11:52:38.349Z,34.20
2019-04-06T11:55:15.112Z,32.61
2019-04-06T11:57:58.067Z,33.85
2019-04-06T12:00:34.629Z,33.00
2019-04-06T12:03:09.421Z,33.37
2019-04-06T12:05:47.616Z,33.97
2019-04-06T12:08:34.828Z,34.74
2019-04-06T12:11:12.501Z,33.93
2019-04-06T12:13:52.595Z,31.03
2019-04-06T12:16:31.441Z,30.48
2019-04-06T12:19:15.171Z,31.58
2019-04-06T12:22:07.372Z,31.70
2019-04-06T12:25:00.521Z,30.38
2019-04-06T12:27:39.527Z,28.48
2019-04-06T12:30:15.240Z,29.69
2019-04-06T12:33:02.329Z,28.79
2019-04-06T12:35:38.700Z,28.58
2019-04-06T12:38:16.635Z,29.86
2019-04-06T12:41:01.252Z,29.96
2019-04-06T12:43:45.367Z,27.04
2019-04-06T12:46:20.245Z,25.94
2019-04-06T12:49:04.902Z,24.03
2019-04-06T12:51:40.878Z,23.53
2019-04-06T12:54:23.830Z,24.47
2019-04-06T12:57:01.012Z,24.95
2019-04-06T12:59:35.313Z,25.09
2019-04-06T13:02:25.122Z,28.21
2019-04-06T13:05:16.657Z,28.72
2019-04-06T13:07:52.972Z,28.29
2019-04-06T13:10:28.516Z,26.10
2019-04-06T13:13:10.141Z,28.71
2019-04-06T13:15:51.375Z,28.10
2019-04-06T13:18:35.231Z,27.81
2019-04-06T13:21:12.521Z,25.70
2019-04-06T13:23:49.866Z,28.32
2019-04-06T13:26:41.348Z,26.98
2019-04-06T13:29:16.119Z,25.75
2019-04-06T13:32:01.796Z,24.43
2019-04-06T13:34:52.250Z,24.33
2019-04-06T13:37:26.496Z,26.54
2019-04-06T13:40:03.244Z,29.40
2019-04-06T13:42:54.023Z,31.49
2019-04-06T13:45:42.460Z,32.45
2019-04-06T13:48:22.459Z,33.47
2019-04-06T13:51:01.303Z,33.98
2019-04-06T13:53:55.050Z,32.91
2019-04-06T13:56:46.736Z,31.83
2019-04-06T13:59:28.086Z,32.97
2019-04-06T14:02:06.840Z,34.87
2019-04-06T14:04:42.130Z,34.94
2019-04-06T14:07:27.080Z,35.33
2019-04-06T14:10:15.550Z,35.72
2019-04-06T14:12:48.471Z,36.86
2019-04-06T14:15:34.203Z,38.23
2019-04-06T14:18:21.747Z,36.25
2019-04-06T14:21:13.484Z,31.51
2019-04-06T14:23:46.291Z,27.71
2019-04-06T14:26:25.416Z,26.97
2019-04-06T14:29:08.371Z,28.29
2019-04-06T14:31:57.841Z,30.19
2019-04-06T14:34:50.010Z,27.54
2019-04-06T14:37:24.850Z,26.53
2019-04-06T14:40:13.962Z,32.00
2019-04-06T14:42:51.423Z,33.97
2019-04-06T14:45:32.227Z,34.58
2019-04-06T14:48:10.693Z,33.94
2019-04-06T14:50:41.240Z,36.69
2019-04-06T14:53:16.130Z,37.52
2019-04-06T14:55:57.108Z,37.08
2019-04-06T14:58:41.342Z,37.79
2019-04-06T15:01:20.543Z,37.20
2019-04-06T15:04:02.596Z,35.56
2019-04-06T15:06:37.775Z,36.10
2019-04-06T15:09:26.763Z,38.06
2019-04-06T15:12:19.240Z,37.71
2019-04-06T15:14:53.489Z,36.26
2019-04-06T15:17:27.967Z,35.78
2019-04-06T15:20:11.187Z,37.51
2019-04-06T15:23:01.960Z,39.97
2019-04-06T15:25:41.216Z,41.45
2019-04-06T15:28:24.539Z,43.58
2019-04-06T15:30:55.751Z,45.03
2019-04-06T15:33:46.159Z,45.24
2019-04-06T15:36:36.498Z,44.81
2019-04-06T15:39:16.119Z,45.11
2019-04-06T15:42:06.964Z,46.07
2019-04-06T15:44:41.356Z,45.34
2019-04-06T15:47:31.785Z,46.68
2019-04-06T15:50:19.609Z,45.62
2019-04-06T15:53:02.889Z,45.24
2019-04-06T15:55:37.343Z,44.54
2019-04-06T15:58:26.339Z,44.80
2019-04-06T16:01:02.816Z,44.92
2019-04-06T16:03:50.610Z,45.57
2019-04-06T16:06:30.188Z,44.30
2019-04-06T16:09:19.189Z,41.49
2019-04-06T16:12:09.475Z,39.82
2019-04-06T16:14:49.694Z,41.19
2019-04-06T16:17:24.206Z,39.70
2019-04-06T16:19:56.607Z,40.75
2019-04-06T16:22:40.605Z,41.42
2019-04-06T16:25:27.212Z,40.40
2019-04-06T16:28:05.001Z,42.74
2019-04-06T16:30:42.610Z,43.67
2019-04-06T16:33:21.383Z,43.89
2019-04-06T16:36:00.097Z,45.35
2019-04-06T16:38:41.537Z,46.36
2019-04-06T16:41:33.784Z,47.16
2019-04-06T16:44:09.342Z,47.54
2019-04-06T16:47:01.511Z,48.48
2019-04-06T16:49:40.425Z,50.16
2019-04-06T16:52:12.643Z,51.64
2019-04-06T16:54:54.471Z,50.81
2019-04-06T16:57:47.054Z,51.45
2019-04-06T17:00:30.845Z,51.96
2019-04-06T17:03:10.691Z,51.37
2019-04-06T17:06:05.087Z,53.88
2019-04-06T17:08:42.536Z,53.65
2019-04-06T17:11:19.893Z,56.01
2019-04-06T17:14:04.504Z,56.29
2019-04-06T17:16:39.123Z,58.17
2019-04-06T17:19:31.244Z,59.52
2019-04-06T17:22:14.788Z,58.58
2019-04-06T17:24:50.292Z,60.42
2019-04-06T17:27:21.960Z,60.17
2019-04-06T17:29:57.610Z,61.03
2019-04-06T17:32:40.015Z,60.42
2019-04-06T17:35:15.813Z,61.05
2019-04-06T17:37:52.167Z,61.18
2019-04-06T17:40:46.217Z,62.22
2019-04-06T17:43:31.984Z,63.25
2019-04-06T17:46:12.807Z,63.92
2019-04-06T17:48:49.561Z,64.17
2019-04-06T17:51:40.839Z,66.35
2019-04-06T17:54:32.092Z,67.59
2019-04-06T17:57:21.041Z,67.78
2019-04-06T17:59:57.342Z,68.98
2019-04-06T18:02:50.907Z,70.21
2019-04-06T18:05:37.341Z,69.95
2019-04-06T18:08:28.158Z,69.79
2019-04-06T18:11:18.811Z,71.27
2019-04-06T18:13:57.751Z,71.89
2019-04-06T18:16:32.893Z,71.02
2019-04-06T18:19:04.548Z,71.73
2019-04-06T18:21:39.146Z,72.71
2019-04-06T18:24:11.174Z,74.11
2019-04-06T18:26:42.530Z,75.14
2019-04-06T18:29:17.435Z,75.17
2019-04-06T18:31:51.804Z,75.62
2019-04-06T18:34:26.658Z,76.48
2019-04-06T18:37:01.375Z,77.14
2019-04-06T18:39:32.538Z,77.83
2019-04-06T18:42:06.753Z,77.82
2019-04-06T18:44:37.961Z,78.83
2019-04-06T18:47:12.950Z,78.41
2019-04-06T18:49:44.301Z,78.83
2019-04-06T18:52:15.570Z,79.21
2019-04-06T18:54:46.897Z,79.17
2019-04-06T18:57:21.934Z,79.05
2019-04-06T18:59:53.105Z,79.86
2019-04-06T19:02:25.011Z,80.64
2019-04-06T19:04:56.926Z,80.83
2019-04-06T19:07:28.293Z,81.59
2019-04-06T19:10:02.830Z,81.81
2019-04-06T19:12:35.228Z,82.53
2019-04-06T19:15:09.558Z,82.39
2019-04-06T19:17:42.314Z,83.26
2019-04-06T19:20:12.872Z,83.65
2019-04-06T19:22:47.946Z,83.28
2019-04-06T19:25:19.649Z,83.17
2019-04-06T19:27:49.780Z,82.42
2019-04-06T19:30:21.307Z,82.72
2019-04-06T19:32:52.532Z,82.94
2019-04-06T19:35:23.771Z,83.26
2019-04-06T19:37:55.219Z,82.83
2019-04-06T19:40:26.953Z,83.07
2019-04-06T19:42:58.221Z,83.07
2019-04-06T19:45:30.360Z,83.78
2019-04-06T19:48:02.066Z,83.41
2019-04-06T19:50:33.715Z,82.93
2019-04-06T19:53:04.910Z,83.43
2019-04-06T19:55:36.140Z,83.32
2019-04-06T19:58:08.890Z,83.25
2019-04-06T20:00:39.197Z,84.51
2019-04-06T20:03:11.066Z,85.14
2019-04-06T20:05:42.423Z,84.51
2019-04-06T20:08:14.203Z,84.07
2019-04-06T20:10:45.378Z,83.22
2019-04-06T20:13:19.959Z,83.08
2019-04-06T20:15:51.241Z,84.74
2019-04-06T20:18:21.475Z,85.54
2019-04-06T20:20:57.649Z,86.02
2019-04-06T20:23:28.810Z,85.81
2019-04-06T20:25:58.963Z,86.41
2019-04-06T20:28:28.921Z,87.48
2019-04-06T20:31:00.257Z,86.55
2019-04-06T20:33:45.985Z,85.76
2019-04-06T20:36:05.017Z,85.90
2019-04-06T20:38:36.726Z,86.10
2019-04-06T20:41:07.468Z,86.18
2019-04-06T20:43:38.810Z,87.53
2019-04-06T20:46:10.062Z,87.09
2019-04-06T20:48:44.828Z,87.16
2019-04-06T20:51:15.871Z,87.06
2019-04-06T20:53:47.937Z,86.85
2019-04-06T20:56:22.530Z,88.55
2019-04-06T20:58:53.855Z,89.34
2019-04-06T21:01:28.761Z,88.65
2019-04-06T21:04:02.622Z,88.64
2019-04-06T21:06:35.169Z,89.37
2019-04-06T21:09:10.132Z,90.51
2019-04-06T21:11:39.421Z,91.74
2019-04-06T21:14:11.150Z,90.21
2019-04-06T21:16:42.682Z,90.47
2019-04-06T21:19:15.872Z,90.61
2019-04-06T21:21:50.407Z,89.00
2019-04-06T21:24:19.507Z,88.84
2019-04-06T21:26:50.728Z,90.85
2019-04-06T21:29:21.892Z,90.44
2019-04-06T21:31:53.251Z,92.20
2019-04-06T21:34:28.139Z,91.79
2019-04-06T21:37:03.021Z,91.89
2019-04-06T21:39:34.251Z,92.65
2019-04-06T21:42:05.704Z,93.83
2019-04-06T21:44:36.938Z,93.18
2019-04-06T21:47:08.342Z,92.78
2019-04-06T21:49:38.977Z,93.04
2019-04-06T21:52:10.224Z,92.59
2019-04-06T21:54:41.429Z,93.69
2019-04-06T21:57:12.907Z,93.29
2019-04-06T21:59:44.099Z,92.29
2019-04-06T22:02:15.820Z,92.95
2019-04-06T22:04:47.079Z,93.68
2019-04-06T22:07:17.793Z,94.72
2019-04-06T22:09:49.200Z,93.27
2019-04-06T22:12:20.348Z,93.24
2019-04-06T22:14:51.637Z,92.30
2019-04-06T22:17:23.274Z,92.26
2019-04-06T22:19:56.585Z,93.08
2019-04-06T22:22:27.677Z,94.62
2019-04-06T22:24:58.939Z,93.46
2019-04-06T22:27:30.167Z,95.54
2019-04-06T22:30:03.599Z,94.45
2019-04-06T22:32:35.442Z,94.07
2019-04-06T22:35:11.032Z,95.47
2019-04-06T22:37:42.634Z,94.79
2019-04-06T22:40:13.241Z,95.34
2019-04-06T22:42:45.115Z,92.93
2019-04-06T22:45:19.007Z,93.26
2019-04-06T22:47:50.829Z,91.35
2019-04-06T22:50:22.099Z,92.44
2019-04-06T22:52:53.276Z,92.13
2019-04-06T22:55:27.792Z,93.55
2019-04-06T22:57:59.804Z,92.99
2019-04-06T23:00:37.729Z,95.71
2019-04-06T23:03:21.226Z,95.91
2019-04-06T23:06:04.041Z,95.38
2019-04-06T23:08:38.387Z,95.70
2019-04-06T23:11:09.634Z,96.00
2019-04-06T23:13:40.803Z,96.12
2019-04-06T23:16:12.636Z,93.91
2019-04-06T23:18:41.347Z,93.47
2019-04-06T23:21:15.790Z,93.67
2019-04-06T23:23:47.432Z,94.59
2019-04-06T23:26:22.051Z,94.65
2019-04-06T23:28:53.885Z,95.79
2019-04-06T23:31:24.343Z,95.59
2019-04-06T23:33:58.514Z,95.63
2019-04-06T23:36:29.190Z,95.06
2019-04-06T23:39:00.459Z,95.02
2019-04-06T23:41:32.293Z,95.33
2019-04-06T23:44:03.430Z,95.84
2019-04-06T23:46:35.031Z,95.81
2019-04-06T23:49:06.514Z,96.50
2019-04-06T23:51:41.508Z,94.46
2019-04-06T23:54:12.770Z,95.38
2019-04-06T23:56:43.931Z,96.71
2019-04-06T23:59:14.179Z,94.74
